createdAt,value
2023-04-01T00:00:51.132Z,0.50
2023-04-01T00:01:51.175Z,0.50
2023-04-01T00:02:51.298Z,0.40
2023-04-01T00:03:51.363Z,0.37
2023-04-01T00:04:51.285Z,0.35
2023-04-01T00:05:51.340Z,0.34
2023-04-01T00:06:51.435Z,0.38
2023-04-01T00:07:51.446Z,0.40
2023-04-01T00:08:51.502Z,0.45
2023-04-01T00:09:51.550Z,0.50
2023-04-01T00:10:51.598Z,0.51
2023-04-01T00:11:51.650Z,0.49
2023-04-01T00:12:51.725Z,0.51
2023-04-01T00:13:51.703Z,0.50
2023-04-01T00:14:51.739Z,0.51
2023-04-01T00:15:51.833Z,0.51
2023-04-01T00:16:51.819Z,0.50
2023-04-01T00:17:51.890Z,0.52
2023-04-01T00:18:51.888Z,0.51
2023-04-01T00:19:51.928Z,0.50
2023-04-01T00:20:51.971Z,0.51
2023-04-01T00:21:52.017Z,0.50
2023-04-01T00:22:52.072Z,0.52
2023-04-01T00:23:52.283Z,0.52
2023-04-01T00:24:52.145Z,0.50
2023-04-01T00:25:52.171Z,0.50
2023-04-01T00:26:52.217Z,0.52
2023-04-01T00:27:52.265Z,0.52
2023-04-01T00:28:52.366Z,0.52
2023-04-01T00:29:52.316Z,0.51
2023-04-01T00:30:52.360Z,0.52
2023-04-01T00:31:52.407Z,0.52
2023-04-01T00:32:52.477Z,0.52
2023-04-01T00:33:52.443Z,0.52
2023-04-01T00:34:52.462Z,0.52
2023-04-01T00:35:52.495Z,0.51
2023-04-01T00:36:52.494Z,0.52
2023-04-01T00:37:52.520Z,0.50
2023-04-01T00:38:52.571Z,0.51
2023-04-01T00:39:52.595Z,0.51
2023-04-01T00:40:52.590Z,0.52
2023-04-01T00:41:52.626Z,0.50
2023-04-01T00:42:52.641Z,0.50
2023-04-01T00:43:52.677Z,0.52
2023-04-01T00:44:52.721Z,0.53
2023-04-01T00:45:52.711Z,0.52
2023-04-01T00:46:52.780Z,0.53
2023-04-01T00:47:52.787Z,0.52
2023-04-01T00:48:52.753Z,0.52
2023-04-01T00:49:52.768Z,0.52
2023-04-01T00:50:52.767Z,0.50
2023-04-01T00:51:52.789Z,0.53
2023-04-01T00:52:52.825Z,0.52
2023-04-01T00:53:52.811Z,0.53
2023-04-01T00:54:52.831Z,0.51
2023-04-01T00:55:52.818Z,0.53
2023-04-01T00:56:52.847Z,0.51
2023-04-01T00:57:52.844Z,0.52
2023-04-01T00:58:52.850Z,0.53
2023-04-01T00:59:52.875Z,0.53
2023-04-01T01:00:52.934Z,0.51
2023-04-01T01:01:52.930Z,0.51
2023-04-01T01:02:52.973Z,0.52
2023-04-01T01:03:52.926Z,0.53
2023-04-01T01:04:52.947Z,0.54
2023-04-01T01:05:53.163Z,0.53
2023-04-01T01:06:52.974Z,0.51
2023-04-01T01:07:52.996Z,0.52
2023-04-01T01:08:52.992Z,0.51
2023-04-01T01:09:53.010Z,0.51
2023-04-01T01:10:53.004Z,0.53
2023-04-01T01:11:53.026Z,0.52
2023-04-01T01:12:53.044Z,0.52
2023-04-01T01:13:53.044Z,0.51
2023-04-01T01:14:53.066Z,0.51
2023-04-01T01:15:53.076Z,0.51
2023-04-01T01:16:53.136Z,0.52
2023-04-01T01:17:53.124Z,0.51
2023-04-01T01:18:53.096Z,0.52
2023-04-01T01:19:53.094Z,0.51
2023-04-01T01:20:53.116Z,0.53
2023-04-01T01:21:53.147Z,0.53
2023-04-01T01:22:53.152Z,0.53
2023-04-01T01:23:53.171Z,0.54
2023-04-01T01:24:53.177Z,0.53
2023-04-01T01:25:53.171Z,0.54
2023-04-01T01:26:53.184Z,0.54
2023-04-01T01:27:53.184Z,0.53
2023-04-01T01:28:53.212Z,0.52
2023-04-01T01:29:53.673Z,0.54
2023-04-01T01:30:53.285Z,0.51
2023-04-01T01:31:53.220Z,0.54
2023-04-01T01:32:53.256Z,0.53
2023-04-01T01:33:53.245Z,0.51
2023-04-01T01:34:53.259Z,0.52
2023-04-01T01:35:53.310Z,0.53
2023-04-01T01:36:54.250Z,0.53
2023-04-01T01:37:53.291Z,0.52
2023-04-01T01:38:53.286Z,0.52
2023-04-01T01:39:53.305Z,0.53
2023-04-01T01:40:53.288Z,0.53
2023-04-01T01:41:53.306Z,0.52
2023-04-01T01:42:53.303Z,0.52
2023-04-01T01:43:53.302Z,0.52
2023-04-01T01:44:53.301Z,0.50
2023-04-01T01:45:53.330Z,0.52
2023-04-01T01:46:53.337Z,0.51
2023-04-01T01:47:53.340Z,0.52
2023-04-01T01:48:53.376Z,0.51
2023-04-01T01:49:53.355Z,0.51
2023-04-01T01:50:53.362Z,0.52
2023-04-01T01:51:56.174Z,0.52
2023-04-01T01:52:53.384Z,0.53
2023-04-01T01:53:53.373Z,0.53
2023-04-01T01:54:53.362Z,0.52
2023-04-01T01:55:53.366Z,0.52
2023-04-01T01:56:53.415Z,0.52
2023-04-01T01:57:53.348Z,0.52
2023-04-01T01:58:56.177Z,0.52
2023-04-01T01:59:53.335Z,0.52
2023-04-01T02:00:53.332Z,0.51
2023-04-01T02:01:53.380Z,0.52
2023-04-01T02:02:53.366Z,0.52
2023-04-01T02:03:53.302Z,0.52
2023-04-01T02:04:53.375Z,0.51
2023-04-01T02:05:53.289Z,0.51
2023-04-01T02:06:53.301Z,0.50
2023-04-01T02:07:53.273Z,0.53
2023-04-01T02:08:53.274Z,0.50
2023-04-01T02:09:53.275Z,0.52
2023-04-01T02:10:53.252Z,0.51
2023-04-01T02:11:53.248Z,0.52
2023-04-01T02:12:53.234Z,0.52
2023-04-01T02:13:53.229Z,0.52
2023-04-01T02:14:53.228Z,0.52
2023-04-01T02:15:53.217Z,0.52
2023-04-01T02:16:53.208Z,0.52
2023-04-01T02:17:56.203Z,0.53
2023-04-01T02:18:53.202Z,0.53
2023-04-01T02:19:53.194Z,0.53
2023-04-01T02:20:53.209Z,0.53
2023-04-01T02:21:53.189Z,0.53
2023-04-01T02:22:53.173Z,0.51
2023-04-01T02:23:53.172Z,0.51
2023-04-01T02:24:53.161Z,0.52
2023-04-01T02:25:53.151Z,0.52
2023-04-01T02:26:53.144Z,0.52
2023-04-01T02:27:53.139Z,0.52
2023-04-01T02:28:53.128Z,0.52
2023-04-01T02:29:53.122Z,0.52
2023-04-01T02:30:53.118Z,0.51
2023-04-01T02:31:53.164Z,0.52
2023-04-01T02:32:53.131Z,0.52
2023-04-01T02:33:53.097Z,0.52
2023-04-01T02:34:53.082Z,0.52
2023-04-01T02:35:53.111Z,0.51
2023-04-01T02:36:53.092Z,0.52
2023-04-01T02:37:53.076Z,0.53
2023-04-01T02:38:55.693Z,0.52
2023-04-01T02:39:53.066Z,0.52
2023-04-01T02:40:53.065Z,0.52
2023-04-01T02:41:53.035Z,0.52
2023-04-01T02:42:53.026Z,0.52
2023-04-01T02:43:53.021Z,0.53
2023-04-01T02:44:53.318Z,0.50
2023-04-01T02:45:53.007Z,0.53
2023-04-01T02:46:53.051Z,0.53
2023-04-01T02:47:53.091Z,0.53
2023-04-01T02:48:52.988Z,0.53
2023-04-01T02:49:52.992Z,0.52
2023-04-01T02:50:52.975Z,0.52
2023-04-01T02:51:52.963Z,0.52
2023-04-01T02:52:53.002Z,0.55
2023-04-01T02:53:52.959Z,0.54
2023-04-01T02:54:52.963Z,0.54
2023-04-01T02:55:52.953Z,0.53
2023-04-01T02:56:53.046Z,0.54
2023-04-01T02:57:52.975Z,0.53
2023-04-01T02:58:52.971Z,0.55
2023-04-01T02:59:52.923Z,0.54
2023-04-01T03:00:52.964Z,0.55
2023-04-01T03:01:52.937Z,0.54
2023-04-01T03:02:53.067Z,0.54
2023-04-01T03:03:52.887Z,0.52
2023-04-01T03:04:52.897Z,0.53
2023-04-01T03:05:52.889Z,0.53
2023-04-01T03:06:53.709Z,0.53
2023-04-01T03:07:52.883Z,0.54
2023-04-01T03:08:52.902Z,0.50
2023-04-01T03:09:52.860Z,0.54
2023-04-01T03:10:52.853Z,0.54
2023-04-01T03:11:52.852Z,0.53
2023-04-01T03:12:52.832Z,0.51
2023-04-01T03:13:52.838Z,0.55
2023-04-01T03:14:52.821Z,0.52
2023-04-01T03:15:53.219Z,0.53
2023-04-01T03:16:52.896Z,0.53
2023-04-01T03:17:52.888Z,0.51
2023-04-01T03:18:52.835Z,0.55
2023-04-01T03:19:52.846Z,0.55
2023-04-01T03:20:52.869Z,0.54
2023-04-01T03:21:52.915Z,0.54
2023-04-01T03:22:52.929Z,0.54
2023-04-01T03:23:52.945Z,0.54
2023-04-01T03:24:52.985Z,0.53
2023-04-01T03:25:52.956Z,0.52
2023-04-01T03:26:52.962Z,0.54
2023-04-01T03:27:52.974Z,0.53
2023-04-01T03:28:52.981Z,0.55
2023-04-01T03:29:53.044Z,0.53
2023-04-01T03:30:53.046Z,0.53
2023-04-01T03:31:53.029Z,0.54
2023-04-01T03:32:53.090Z,0.53
2023-04-01T03:33:53.039Z,0.55
2023-04-01T03:34:53.057Z,0.55
2023-04-01T03:35:53.282Z,0.53
2023-04-01T03:36:53.077Z,0.53
2023-04-01T03:37:53.719Z,0.53
2023-04-01T03:38:53.099Z,0.55
2023-04-01T03:39:53.718Z,0.52
2023-04-01T03:40:53.155Z,0.53
2023-04-01T03:41:53.144Z,0.51
2023-04-01T03:42:53.225Z,0.54
2023-04-01T03:43:53.171Z,0.54
2023-04-01T03:44:53.165Z,0.53
2023-04-01T03:45:53.197Z,0.53
2023-04-01T03:46:53.188Z,0.52
2023-04-01T03:47:53.280Z,0.52
2023-04-01T03:48:53.207Z,0.54
2023-04-01T03:49:53.218Z,0.53
2023-04-01T03:50:53.220Z,0.54
2023-04-01T03:51:53.213Z,0.54
2023-04-01T03:52:53.233Z,0.54
2023-04-01T03:53:53.246Z,0.52
2023-04-01T03:54:53.268Z,0.52
2023-04-01T03:55:53.245Z,0.53
2023-04-01T03:56:54.304Z,0.54
2023-04-01T03:57:56.225Z,0.52
2023-04-01T03:58:53.270Z,0.54
2023-04-01T03:59:53.242Z,0.53
2023-04-01T04:00:53.250Z,0.54
2023-04-01T04:01:53.249Z,0.53
2023-04-01T04:02:53.351Z,0.54
2023-04-01T04:03:53.397Z,0.53
2023-04-01T04:04:53.207Z,0.53
2023-04-01T04:05:53.204Z,0.52
2023-04-01T04:06:53.243Z,0.53
2023-04-01T04:07:53.181Z,0.53
2023-04-01T04:08:53.182Z,0.54
2023-04-01T04:09:53.172Z,0.53
2023-04-01T04:10:59.740Z,0.53
2023-04-01T04:11:53.167Z,0.54
2023-04-01T04:12:53.175Z,0.53
2023-04-01T04:13:53.154Z,0.54
2023-04-01T04:14:53.138Z,0.54
2023-04-01T04:15:53.189Z,0.54
2023-04-01T04:16:53.133Z,0.54
2023-04-01T04:17:53.254Z,0.51
2023-04-01T04:18:53.112Z,0.52
2023-04-01T04:19:53.257Z,0.52
2023-04-01T04:20:53.110Z,0.53
2023-04-01T04:21:53.097Z,0.51
2023-04-01T04:22:53.089Z,0.53
2023-04-01T04:23:53.075Z,0.52
2023-04-01T04:24:53.099Z,0.52
2023-04-01T04:25:53.074Z,0.53
2023-04-01T04:26:53.051Z,0.50
2023-04-01T04:27:53.056Z,0.54
2023-04-01T04:28:53.080Z,0.54
2023-04-01T04:29:53.033Z,0.55
2023-04-01T04:30:53.026Z,0.53
2023-04-01T04:31:53.085Z,0.53
2023-04-01T04:32:53.785Z,0.52
2023-04-01T04:33:53.023Z,0.53
2023-04-01T04:34:52.998Z,0.54
2023-04-01T04:36:07.814Z,0.53
2023-04-01T04:37:11.029Z,0.50
2023-04-01T04:38:12.023Z,0.50
2023-04-01T04:39:12.015Z,0.50
2023-04-01T04:40:12.008Z,0.50
2023-04-01T04:41:11.994Z,0.50
2023-04-01T04:42:11.997Z,0.50
2023-04-01T04:43:11.977Z,0.53
2023-04-01T04:44:12.008Z,0.53
2023-04-01T04:45:11.966Z,0.51
2023-04-01T04:46:11.958Z,0.50
2023-04-01T04:47:12.055Z,0.53
2023-04-01T04:48:11.950Z,0.53
2023-04-01T04:49:11.928Z,0.51
2023-04-01T04:50:11.925Z,0.52
2023-04-01T04:51:11.920Z,0.52
2023-04-01T04:52:11.913Z,0.51
2023-04-01T04:53:11.906Z,0.53
2023-04-01T04:54:11.898Z,0.52
2023-04-01T04:55:11.897Z,0.53
2023-04-01T04:56:11.880Z,0.51
2023-04-01T04:57:11.910Z,0.52
2023-04-01T04:58:11.878Z,0.53
2023-04-01T04:59:11.864Z,0.53
2023-04-01T05:00:11.884Z,0.51
2023-04-01T05:01:11.900Z,0.52
2023-04-01T05:02:11.874Z,0.54
2023-04-01T05:03:11.987Z,0.54
2023-04-01T05:04:11.831Z,0.53
2023-04-01T05:05:11.823Z,0.53
2023-04-01T05:06:11.812Z,0.53
2023-04-01T05:07:11.806Z,0.52
2023-04-01T05:08:11.800Z,0.53
2023-04-01T05:09:11.791Z,0.51
2023-04-01T05:10:11.791Z,0.53
2023-04-01T05:11:13.769Z,0.54
2023-04-01T05:12:11.791Z,0.53
2023-04-01T05:13:11.780Z,0.56
2023-04-01T05:14:11.774Z,0.53
2023-04-01T05:15:11.769Z,0.52
2023-04-01T05:16:11.802Z,0.54
2023-04-01T05:17:11.835Z,0.53
2023-04-01T05:18:11.744Z,0.53
2023-04-01T05:19:11.743Z,0.54
2023-04-01T05:20:11.737Z,0.54
2023-04-01T05:21:11.725Z,0.54
2023-04-01T05:22:11.718Z,0.53
2023-04-01T05:23:11.712Z,0.52
2023-04-01T05:24:11.721Z,0.53
2023-04-01T05:25:11.701Z,0.53
2023-04-01T05:26:11.680Z,0.50
2023-04-01T05:27:11.686Z,0.54
2023-04-01T05:28:11.668Z,0.54
2023-04-01T05:29:11.668Z,0.54
2023-04-01T05:30:11.667Z,0.54
2023-04-01T05:31:11.723Z,0.54
2023-04-01T05:32:11.733Z,0.53
2023-04-01T05:33:11.677Z,0.53
2023-04-01T05:34:11.648Z,0.53
2023-04-01T05:35:11.639Z,0.53
2023-04-01T05:36:11.678Z,0.50
2023-04-01T05:37:11.614Z,0.51
2023-04-01T05:38:11.602Z,0.54
2023-04-01T05:39:12.214Z,0.52
2023-04-01T05:40:11.605Z,0.53
2023-04-01T05:41:11.579Z,0.52
2023-04-01T05:42:11.572Z,0.54
2023-04-01T05:43:11.565Z,0.52
2023-04-01T05:44:11.555Z,0.53
2023-04-01T05:45:11.545Z,0.52
2023-04-01T05:46:11.612Z,0.53
2023-04-01T05:47:11.529Z,0.54
2023-04-01T05:48:11.556Z,0.54
2023-04-01T05:49:11.511Z,0.53
2023-04-01T05:50:11.512Z,0.53
2023-04-01T05:51:11.495Z,0.52
2023-04-01T05:52:11.495Z,0.54
2023-04-01T05:53:11.494Z,0.54
2023-04-01T05:54:11.484Z,0.54
2023-04-01T05:55:11.474Z,0.51
2023-04-01T05:56:11.467Z,0.52
2023-04-01T05:57:11.485Z,0.52
2023-04-01T05:58:11.456Z,0.54
2023-04-01T05:59:11.438Z,0.53
2023-04-01T06:00:11.442Z,0.54
2023-04-01T06:01:15.799Z,0.51
2023-04-01T06:02:11.414Z,0.51
2023-04-01T06:03:11.480Z,0.51
2023-04-01T06:04:11.439Z,0.52
2023-04-01T06:05:11.390Z,0.53
2023-04-01T06:06:11.384Z,0.52
2023-04-01T06:07:11.380Z,0.54
2023-04-01T06:08:11.370Z,0.54
2023-04-01T06:09:11.359Z,0.53
2023-04-01T06:10:11.346Z,0.52
2023-04-01T06:11:11.336Z,0.53
2023-04-01T06:12:11.334Z,0.53
2023-04-01T06:13:11.337Z,0.53
2023-04-01T06:14:11.337Z,0.53
2023-04-01T06:15:11.314Z,0.53
2023-04-01T06:16:11.348Z,0.53
2023-04-01T06:17:11.305Z,0.52
2023-04-01T06:18:11.348Z,0.52
2023-04-01T06:19:11.282Z,0.51
2023-04-01T06:20:11.309Z,0.52
2023-04-01T06:21:11.274Z,0.53
2023-04-01T06:22:11.263Z,0.53
2023-04-01T06:23:11.256Z,0.53
2023-04-01T06:24:11.247Z,0.53
2023-04-01T06:25:11.236Z,0.53
2023-04-01T06:26:11.229Z,0.52
2023-04-01T06:27:11.219Z,0.53
2023-04-01T06:28:11.242Z,0.53
2023-04-01T06:29:11.209Z,0.53
2023-04-01T06:30:11.203Z,0.52
2023-04-01T06:31:11.305Z,0.52
2023-04-01T06:32:11.531Z,0.53
2023-04-01T06:33:11.301Z,0.52
2023-04-01T06:34:11.175Z,0.52
2023-04-01T06:35:11.167Z,0.53
2023-04-01T06:36:11.231Z,0.53
2023-04-01T06:37:11.164Z,0.52
2023-04-01T06:38:11.150Z,0.53
2023-04-01T06:39:11.381Z,0.53
2023-04-01T06:40:11.137Z,0.52
2023-04-01T06:41:11.120Z,0.53
2023-04-01T06:42:11.117Z,0.51
2023-04-01T06:43:11.108Z,0.53
2023-04-01T06:44:11.099Z,0.52
2023-04-01T06:45:11.099Z,0.52
2023-04-01T06:46:11.371Z,0.52
2023-04-01T06:47:11.071Z,0.52
2023-04-01T06:48:11.096Z,0.53
2023-04-01T06:49:11.056Z,0.53
2023-04-01T06:50:11.054Z,0.53
2023-04-01T06:51:11.063Z,0.53
2023-04-01T06:52:11.069Z,0.51
2023-04-01T06:53:11.034Z,0.52
2023-04-01T06:54:11.023Z,0.51
2023-04-01T06:55:11.022Z,0.53
2023-04-01T06:56:11.029Z,0.53
2023-04-01T06:57:11.051Z,0.52
2023-04-01T06:58:11.003Z,0.54
2023-04-01T06:59:10.992Z,0.54
2023-04-01T07:00:10.990Z,0.52
2023-04-01T07:01:11.010Z,0.52
2023-04-01T07:02:10.985Z,0.52
2023-04-01T07:03:10.998Z,0.53
2023-04-01T07:04:11.011Z,0.52
2023-04-01T07:05:11.140Z,0.53
2023-04-01T07:06:11.911Z,0.53
2023-04-01T07:07:10.928Z,0.53
2023-04-01T07:08:11.007Z,0.52
2023-04-01T07:09:10.918Z,0.53
2023-04-01T07:10:10.913Z,0.53
2023-04-01T07:11:10.907Z,0.51
2023-04-01T07:12:10.899Z,0.51
2023-04-01T07:13:10.908Z,0.53
2023-04-01T07:14:10.907Z,0.52
2023-04-01T07:15:10.915Z,0.54
2023-04-01T07:16:10.961Z,0.53
2023-04-01T07:17:10.982Z,0.51
2023-04-01T07:18:10.996Z,0.52
2023-04-01T07:19:10.977Z,0.54
2023-04-01T07:20:10.997Z,0.53
2023-04-01T07:21:10.994Z,0.54
2023-04-01T07:22:11.008Z,0.52
2023-04-01T07:23:11.037Z,0.52
2023-04-01T07:24:11.087Z,0.54
2023-04-01T07:25:11.069Z,0.53
2023-04-01T07:26:11.089Z,0.51
2023-04-01T07:27:11.106Z,0.53
2023-04-01T07:28:11.124Z,0.53
2023-04-01T07:29:11.150Z,0.54
2023-04-01T07:30:11.163Z,0.54
2023-04-01T07:31:11.228Z,0.52
2023-04-01T07:32:11.213Z,0.51
2023-04-01T07:33:11.255Z,0.54
2023-04-01T07:34:11.456Z,0.54
2023-04-01T07:35:11.323Z,0.52
2023-04-01T07:36:11.444Z,0.53
2023-04-01T07:37:11.409Z,0.54
2023-04-01T07:38:11.514Z,0.55
2023-04-01T07:39:11.470Z,0.52
2023-04-01T07:40:11.544Z,0.52
2023-04-01T07:41:11.545Z,0.54
2023-04-01T07:42:11.582Z,0.51
2023-04-01T07:43:11.611Z,0.53
2023-04-01T07:44:11.629Z,0.52
2023-04-01T07:45:11.670Z,0.53
2023-04-01T07:46:11.710Z,0.54
2023-04-01T07:47:11.706Z,0.54
2023-04-01T07:48:11.763Z,0.53
2023-04-01T07:49:11.779Z,0.52
2023-04-01T07:50:11.801Z,0.53
2023-04-01T07:51:11.870Z,0.53
2023-04-01T07:52:11.919Z,0.54
2023-04-01T07:53:11.964Z,0.50
2023-04-01T07:54:12.019Z,0.52
2023-04-01T07:55:12.050Z,0.52
2023-04-01T07:56:12.850Z,0.53
2023-04-01T07:57:12.173Z,0.52
2023-04-01T07:58:12.167Z,0.52
2023-04-01T07:59:12.172Z,0.54
2023-04-01T08:00:12.210Z,0.51
2023-04-01T08:01:12.234Z,0.51
2023-04-01T08:02:12.255Z,0.53
2023-04-01T08:03:12.433Z,0.52
2023-04-01T08:04:12.525Z,0.51
2023-04-01T08:05:12.381Z,0.53
2023-04-01T08:06:12.445Z,0.52
2023-04-01T08:07:12.492Z,0.51
2023-04-01T08:08:12.514Z,0.54
2023-04-01T08:09:12.569Z,0.53
2023-04-01T08:10:12.594Z,0.54
2023-04-01T08:11:12.629Z,0.52
2023-04-01T08:12:12.693Z,0.52
2023-04-01T08:13:13.284Z,0.52
2023-04-01T08:14:12.760Z,0.53
2023-04-01T08:15:12.830Z,0.53
2023-04-01T08:16:12.915Z,0.54
2023-04-01T08:17:12.928Z,0.53
2023-04-01T08:18:12.971Z,0.54
2023-04-01T08:19:13.031Z,0.50
2023-04-01T08:20:13.076Z,0.53
2023-04-01T08:21:13.108Z,0.54
2023-04-01T08:22:13.137Z,0.52
2023-04-01T08:23:13.190Z,0.53
2023-04-01T08:24:13.216Z,0.54
2023-04-01T08:25:13.258Z,0.54
2023-04-01T08:26:13.318Z,0.53
2023-04-01T08:27:14.288Z,0.54
2023-04-01T08:28:13.456Z,0.53
2023-04-01T08:29:13.473Z,0.54
2023-04-01T08:30:13.535Z,0.54
2023-04-01T08:31:13.600Z,0.52
2023-04-01T08:32:13.714Z,0.53
2023-04-01T08:33:13.745Z,0.53
2023-04-01T08:34:13.786Z,0.52
2023-04-01T08:35:13.856Z,0.52
2023-04-01T08:36:13.951Z,0.53
2023-04-01T08:37:13.978Z,0.52
2023-04-01T08:38:14.029Z,0.54
2023-04-01T08:39:14.092Z,0.50
2023-04-01T08:40:14.150Z,0.52
2023-04-01T08:41:14.194Z,0.52
2023-04-01T08:42:14.251Z,0.57
2023-04-01T08:43:14.324Z,0.53
2023-04-01T08:44:14.404Z,0.52
2023-04-01T08:45:14.823Z,0.52
2023-04-01T08:46:14.522Z,0.52
2023-04-01T08:47:14.556Z,0.52
2023-04-01T08:48:14.624Z,0.52
2023-04-01T08:49:14.676Z,0.54
2023-04-01T08:50:14.743Z,0.53
2023-04-01T08:51:14.812Z,0.53
2023-04-01T08:52:14.866Z,0.52
2023-04-01T08:53:14.927Z,0.55
2023-04-01T08:54:14.990Z,0.52
2023-04-01T08:55:15.057Z,0.53
2023-04-01T08:56:15.126Z,0.52
2023-04-01T08:57:15.234Z,0.52
2023-04-01T08:58:15.250Z,0.55
2023-04-01T08:59:15.312Z,0.54
2023-04-01T09:00:15.397Z,0.55
2023-04-01T09:01:15.429Z,0.55
2023-04-01T09:02:15.581Z,0.53
2023-04-01T09:03:15.825Z,0.52
2023-04-01T09:04:15.711Z,0.53
2023-04-01T09:05:15.684Z,0.51
2023-04-01T09:06:15.752Z,0.52
2023-04-01T09:07:15.797Z,0.53
2023-04-01T09:08:15.853Z,0.56
2023-04-01T09:09:15.945Z,0.53
2023-04-01T09:10:15.988Z,0.53
2023-04-01T09:11:16.031Z,0.54
2023-04-01T09:12:16.084Z,0.53
2023-04-01T09:13:16.137Z,0.55
2023-04-01T09:14:16.219Z,0.51
2023-04-01T09:15:16.253Z,0.51
2023-04-01T09:16:16.375Z,0.53
2023-04-01T09:17:16.352Z,0.54
2023-04-01T09:18:16.406Z,0.52
2023-04-01T09:19:16.461Z,0.50
2023-04-01T09:20:16.517Z,0.55
2023-04-01T09:21:16.584Z,0.54
2023-04-01T09:22:16.625Z,0.55
2023-04-01T09:23:16.688Z,0.52
2023-04-01T09:24:16.731Z,0.53
2023-04-01T09:25:16.787Z,0.52
2023-04-01T09:26:16.838Z,0.52
2023-04-01T09:27:16.890Z,0.52
2023-04-01T09:28:17.015Z,0.56
2023-04-01T09:29:16.993Z,0.54
2023-04-01T09:30:17.043Z,0.53
2023-04-01T09:31:17.123Z,0.52
2023-04-01T09:32:17.202Z,0.51
2023-04-01T09:33:17.192Z,0.54
2023-04-01T09:34:17.241Z,0.53
2023-04-01T09:35:17.296Z,0.53
2023-04-01T09:36:17.368Z,0.55
2023-04-01T09:37:17.394Z,0.52
2023-04-01T09:38:17.435Z,0.52
2023-04-01T09:39:17.490Z,0.52
2023-04-01T09:40:17.533Z,0.56
2023-04-01T09:41:17.581Z,0.53
2023-04-01T09:42:17.629Z,0.54
2023-04-01T09:43:17.672Z,0.53
2023-04-01T09:44:17.725Z,0.52
2023-04-01T09:45:17.760Z,0.54
2023-04-01T09:46:17.881Z,0.53
2023-04-01T09:47:17.849Z,0.51
2023-04-01T09:48:17.929Z,0.52
2023-04-01T09:49:17.944Z,0.53
2023-04-01T09:50:18.065Z,0.53
2023-04-01T09:51:18.046Z,0.52
2023-04-01T09:52:18.072Z,0.51
2023-04-01T09:53:18.120Z,0.52
2023-04-01T09:54:18.161Z,0.52
2023-04-01T09:55:18.212Z,0.55
2023-04-01T09:56:18.256Z,0.53
2023-04-01T09:57:18.332Z,0.53
2023-04-01T09:58:18.320Z,0.54
2023-04-01T09:59:18.356Z,0.55
2023-04-01T10:00:18.427Z,0.55
2023-04-01T10:01:18.460Z,0.52
2023-04-01T10:02:18.483Z,0.53
2023-04-01T10:03:18.535Z,0.51
2023-04-01T10:04:18.612Z,0.53
2023-04-01T10:05:18.669Z,0.52
2023-04-01T10:06:18.667Z,0.53
2023-04-01T10:07:18.725Z,0.54
2023-04-01T10:08:18.764Z,0.53
2023-04-01T10:09:18.793Z,0.52
2023-04-01T10:10:18.852Z,0.54
2023-04-01T10:11:18.925Z,0.52
2023-04-01T10:12:19.046Z,0.53
2023-04-01T10:13:18.961Z,0.52
2023-04-01T10:14:19.033Z,0.53
2023-04-01T10:15:19.123Z,0.55
2023-04-01T10:16:19.135Z,0.53
2023-04-01T10:17:19.108Z,0.53
2023-04-01T10:18:19.164Z,0.53
2023-04-01T10:19:19.275Z,0.55
2023-04-01T10:20:19.264Z,0.52
2023-04-01T10:21:19.266Z,0.55
2023-04-01T10:22:19.293Z,0.52
2023-04-01T10:23:19.323Z,0.52
2023-04-01T10:24:19.368Z,0.54
2023-04-01T10:25:19.415Z,0.50
2023-04-01T10:26:19.453Z,0.52
2023-04-01T10:27:19.478Z,0.54
2023-04-01T10:28:19.518Z,0.53
2023-04-01T10:29:19.547Z,0.52
2023-04-01T10:30:19.602Z,0.52
2023-04-01T10:31:19.641Z,0.53
2023-04-01T10:32:19.724Z,0.52
2023-04-01T10:33:19.711Z,0.51
2023-04-01T10:34:19.731Z,0.52
2023-04-01T10:35:19.770Z,0.52
2023-04-01T10:36:19.856Z,0.54
2023-04-01T10:37:19.816Z,0.55
2023-04-01T10:38:19.851Z,0.52
2023-04-01T10:39:19.900Z,0.52
2023-04-01T10:40:19.954Z,0.54
2023-04-01T10:41:19.952Z,0.51
2023-04-01T10:42:19.985Z,0.53
2023-04-01T10:43:20.032Z,0.55
2023-04-01T10:44:20.095Z,0.55
2023-04-01T10:45:20.111Z,0.52
2023-04-01T10:46:20.126Z,0.55
2023-04-01T10:47:20.161Z,0.52
2023-04-01T10:48:20.168Z,0.53
2023-04-01T10:49:20.218Z,0.53
2023-04-01T10:50:20.238Z,0.54
2023-04-01T10:51:20.278Z,0.53
2023-04-01T10:52:20.360Z,0.55
2023-04-01T10:53:20.347Z,0.53
2023-04-01T10:54:20.387Z,0.52
2023-04-01T10:55:20.417Z,0.52
2023-04-01T10:56:20.481Z,0.53
2023-04-01T10:57:20.551Z,0.52
2023-04-01T10:58:20.567Z,0.53
2023-04-01T10:59:20.559Z,0.53
2023-04-01T11:00:20.586Z,0.53
2023-04-01T11:01:20.662Z,0.54
2023-04-01T11:02:20.677Z,0.53
2023-04-01T11:03:20.746Z,0.54
2023-04-01T11:04:20.715Z,0.54
2023-04-01T11:05:21.016Z,0.52
2023-04-01T11:06:20.769Z,0.55
2023-04-01T11:07:20.801Z,0.55
2023-04-01T11:08:20.859Z,0.52
2023-04-01T11:09:20.875Z,0.55
2023-04-01T11:10:20.904Z,0.52
2023-04-01T11:11:20.940Z,0.52
2023-04-01T11:12:20.961Z,0.53
2023-04-01T11:13:21.061Z,0.52
2023-04-01T11:14:21.068Z,0.54
2023-04-01T11:15:21.079Z,0.54
2023-04-01T11:16:21.182Z,0.55
2023-04-01T11:17:21.198Z,0.54
2023-04-01T11:18:21.213Z,0.53
2023-04-01T11:19:21.202Z,0.54
2023-04-01T11:20:21.236Z,0.55
2023-04-01T11:21:21.266Z,0.53
2023-04-01T11:22:21.316Z,0.53
2023-04-01T11:23:21.342Z,0.54
2023-04-01T11:24:21.392Z,0.55
2023-04-01T11:25:21.391Z,0.53
2023-04-01T11:26:21.425Z,0.53
2023-04-01T11:27:21.480Z,0.54
2023-04-01T11:28:21.481Z,0.54
2023-04-01T11:29:21.511Z,0.54
2023-04-01T11:30:21.537Z,0.55
2023-04-01T11:31:21.621Z,0.54
2023-04-01T11:32:21.642Z,0.54
2023-04-01T11:33:21.627Z,0.56
2023-04-01T11:34:21.664Z,0.54
2023-04-01T11:35:21.693Z,0.54
2023-04-01T11:36:21.756Z,0.54
2023-04-01T11:37:21.756Z,0.55
2023-04-01T11:38:21.788Z,0.53
2023-04-01T11:39:21.830Z,0.54
2023-04-01T11:40:21.898Z,0.54
2023-04-01T11:41:21.877Z,0.53
2023-04-01T11:42:21.911Z,0.54
2023-04-01T11:43:32.454Z,0.57
2023-04-01T11:44:21.925Z,0.57
2023-04-01T11:45:21.930Z,0.57
2023-04-01T11:46:22.001Z,0.56
2023-04-01T11:47:21.984Z,0.56
2023-04-01T11:48:21.903Z,0.56
2023-04-01T11:49:21.884Z,0.55
2023-04-01T11:50:21.878Z,0.57
2023-04-01T11:51:21.873Z,0.55
2023-04-01T11:52:21.865Z,0.54
2023-04-01T11:53:21.854Z,0.56
2023-04-01T11:54:21.850Z,0.55
2023-04-01T11:55:21.846Z,0.54
2023-04-01T11:56:21.863Z,0.57
2023-04-01T11:57:21.839Z,0.54
2023-04-01T11:58:21.820Z,0.54
2023-04-01T11:59:21.802Z,0.56
2023-04-01T12:00:21.814Z,0.54
2023-04-01T12:01:21.805Z,0.54
2023-04-01T12:02:21.849Z,0.54
2023-04-01T12:03:21.959Z,0.57
2023-04-01T12:04:21.839Z,0.54
2023-04-01T12:05:21.772Z,0.57
2023-04-01T12:06:21.761Z,0.56
2023-04-01T12:07:21.765Z,0.55
2023-04-01T12:08:21.754Z,0.55
2023-04-01T12:09:21.734Z,0.55
2023-04-01T12:10:21.728Z,0.58
2023-04-01T12:11:21.723Z,0.54
2023-04-01T12:12:21.746Z,0.54
2023-04-01T12:13:21.710Z,0.56
2023-04-01T12:14:21.720Z,0.54
2023-04-01T12:15:21.694Z,0.55
2023-04-01T12:16:21.726Z,0.56
2023-04-01T12:17:21.677Z,0.55
2023-04-01T12:18:21.674Z,0.56
2023-04-01T12:19:21.682Z,0.55
2023-04-01T12:20:21.672Z,0.55
2023-04-01T12:21:21.703Z,0.54
2023-04-01T12:22:21.737Z,0.56
2023-04-01T12:23:21.792Z,0.56
2023-04-01T12:24:21.811Z,0.56
2023-04-01T12:25:21.853Z,0.54
2023-04-01T12:26:21.884Z,0.53
2023-04-01T12:27:21.907Z,0.55
2023-04-01T12:28:21.993Z,0.54
2023-04-01T12:29:21.983Z,0.57
2023-04-01T12:30:22.018Z,0.55
2023-04-01T12:31:22.065Z,0.57
2023-04-01T12:32:22.153Z,0.55
2023-04-01T12:33:22.114Z,0.55
2023-04-01T12:34:22.148Z,0.55
2023-04-01T12:35:22.243Z,0.56
2023-04-01T12:36:22.253Z,0.55
2023-04-01T12:37:22.248Z,0.55
2023-04-01T12:38:22.371Z,0.54
2023-04-01T12:39:22.322Z,0.53
2023-04-01T12:40:22.348Z,0.57
2023-04-01T12:41:22.381Z,0.54
2023-04-01T12:42:22.402Z,0.57
2023-04-01T12:43:22.444Z,0.57
2023-04-01T12:44:22.573Z,0.58
2023-04-01T12:45:22.506Z,0.56
2023-04-01T12:46:22.578Z,0.56
2023-04-01T12:47:22.601Z,0.55
2023-04-01T12:48:22.590Z,0.55
2023-04-01T12:49:22.620Z,0.54
2023-04-01T12:50:22.658Z,0.55
2023-04-01T12:51:22.682Z,0.54
2023-04-01T12:52:22.716Z,0.56
2023-04-01T12:53:22.738Z,0.54
2023-04-01T12:54:22.783Z,0.56
2023-04-01T12:55:22.832Z,0.56
2023-04-01T12:56:22.862Z,0.52
2023-04-01T12:57:22.949Z,0.54
2023-04-01T12:58:22.941Z,0.55
2023-04-01T12:59:22.976Z,0.56
2023-04-01T13:00:23.061Z,0.56
2023-04-01T13:01:23.079Z,0.55
2023-04-01T13:02:23.071Z,0.55
2023-04-01T13:03:23.112Z,0.55
2023-04-01T13:04:23.141Z,0.56
2023-04-01T13:05:23.166Z,0.56
2023-04-01T13:06:23.200Z,0.54
2023-04-01T13:07:23.225Z,0.54
2023-04-01T13:08:23.248Z,0.54
2023-04-01T13:09:23.273Z,0.54
2023-04-01T13:10:23.305Z,0.52
2023-04-01T13:11:23.359Z,0.53
2023-04-01T13:12:23.386Z,0.52
2023-04-01T13:13:23.401Z,0.56
2023-04-01T13:14:31.421Z,0.52
2023-04-01T13:15:23.417Z,0.52
2023-04-01T13:16:23.450Z,0.52
2023-04-01T13:17:23.426Z,0.52
2023-04-01T13:18:23.383Z,0.52
2023-04-01T13:19:23.377Z,0.53